Thornfield, Missouri
Current Conditions -  °F | °C
As of 6:04 PM on Saturday 20 Dec 2014 (Local Time) from KBPK Reporting Station
Haze Haze  
Wind Chill: 41°   Ceiling: 3100
Heat Index: 41°   Visibility: 6mi
Dew Point: 39°   Wind: 3mph
Humidity: 93%   Direction: 100°E
Pressure: 30.2"   Gusts: NA
Location:  36.71°N, 92.66°W
Report Text: KBPK 210004Z AUTO 10003KT 6SM BR SCT010 OVC031 05/04 A3020 RMK AO2 T00500039
Loading
Personal Weather Stations






























Interactive Weather Map New forecast layout! Learn more

10-Day Weather Forecast

Advertisements
Track Severe Weather on mobile